Madison, AL (35758)

9:47 PM CST on February 24, 2017 (GMT -0600)
Windstone Subdivision | | Change Station
Active Advisory: Special Statement

Elev 655 ft 34.70 °N, 86.71 °W | Updated 11 seconds ago

Mostly Cloudy
Mostly Cloudy
70.3 °F
Feels Like 75 °F
N
2.0
Wind Variable Wind from East
Gusts 6.0 mph

Today
High -- | Low -- °F
--% Chance of Precip.
Yesterday
High -- | Low -- °F
Precip. -- in
Pressure 29.68 in
Visibility 10.0 miles
Clouds Scattered Clouds 6000 ft
Heat Index 75 °F
Dew Point 59 °F
Humidity 67%
Rainfall 0.00 in
Snow Depth Not available.
6:21 AM 5:38 PM
Waning Crescent, 3% visible
METAR KHUA 250258Z AUTO 22009KT 10SM VCTS SCT060 21/13 A2969 RMK AO2 SLP050 T02070132 58003
Pressure 29.68 in
Visibility 10.0 miles
Clouds Scattered Clouds 6000 ft
Heat Index 75 °F
Dew Point 59 °F
Humidity 67%
Rainfall 0.00 in
Snow Depth Not available.
6:21 AM 5:38 PM
Waning Crescent, 3% visible
METAR KHUA 250258Z AUTO 22009KT 10SM VCTS SCT060 21/13 A2969 RMK AO2 SLP050 T02070132 58003

Get Your Daily Forecast Email!

Thanks for signing up!

Be on the lookout for a verification email in your inbox.

You'll start receiving the daily forecast at 8 AM.

×

10-Day Weather Forecast

Almanac

Astronomy

Feb. 24, 2017 Rise Set
Actual Time
Civil Twilight
Nautical Twilight
Astronomical Twilight
Moon
Length of Visible Light
Length of Day
Tomorrow will be .
, % of the Moon is Illuminated

Today's Extremes

State Highs State Lows

Community

WunderPhotos

Upload Photos

1,962,540 photos uploaded!

WunderBlog® & News

Nearby

Air Quality

  Air Quality AQ Index Pollutant
Not available.

Snow Depth

Station Depth Elevation

Earthquake Activity

City Distance Mag. Time & Date
Minimum magnitude displayed is 2.5.

Coastal Water Temperatures

Place Temperature

Stations

Nearby Weather Stations

Station Location Temp. Windchill Dew Point Humidity Wind Precip. Elev Updated Type
                   

Watches & Warnings

Special Statement
Issued: 9:26 PM CST Feb. 24, 2017 – National Weather Service

... Significant weather advisory for northwestern Madison...
northeastern Limestone and southern Lincoln counties until 1000 PM
CST...

At 926 PM CST, Doppler radar was tracking a strong thunderstorm near
Ardmore, moving northeast at 40 mph.

Pea size hail and winds in excess of 40 mph will be possible with
this storm.

Locations impacted include...
Fayetteville, Hazel Green, Ardmore, Lincoln, Elkwood, Mimosa,
Blanche, Coldwater, Fisk and Kelso.

Precautionary/preparedness actions...

Very heavy rainfall is also occurring with this storm and may lead to
localized flooding. Do not drive your vehicle through flooded
roadways.

Frequent cloud to ground lightning is occurring with this storm.
Lightning can strike several miles away from a thunderstorm. Seek a
safe shelter inside a building or vehicle.


Lat... Lon 3526 8642 3524 8642 3524 8643 3523 8642
      3497 8640 3489 8690 3499 8686 3499 8684
      3506 8684 3528 8645
time... Mot... loc 0326z 240deg 34kt 3501 8676


Ktw